Главная страница
METAR-TAF:

METAR-TAF

Аэропорты :

Афины, Греция

Элефтериос Венизелос

широта: 37-56N, долгота: 023-56E, высота над уровнем моря: 94 м

Текущие метеонаблюдения

Эта сводка был подготовлена 39 минут назад, в 06:50 UTC
Ветер 3 Узел переменных направлений
Температура 19°C
Влажность 46%
Давление 1015 hPa
Видимость 10 км и более
Нет облачности ниже 1500 м, и нет кучево-дождевой облачности

METAR: LGAV 230650Z VRB03KT CAVOK 19/07 Q1015 NOSIG

Время: 10:29 (07:29 UTC)

Прогноз

Эта сводка был подготовлена 2 часа и 29 минут назад, в 05:00 UTC
Прогноз действительный с 23-го 06 UTC до 24-го 06 UTC
Ветер 10 Узел от северо-восточный
Видимость 10 км и более
небольшая облачность на высоте 2500 фута
изменения
С 23-го 10 UTC до 23-го 12 UTC
Ветер 10 Узел от восточно-юго-восточный
изменения
С 23-го 16 UTC до 23-го 18 UTC
Ветер 5 Узел переменных направлений

TAF: LGAV 230500Z 2306/2406 05010KT 9999 FEW025 BECMG 2310/2312 11010KT BECMG 2316/2318 VRB05KT

Метеонаблюдения и прогнозы для более 4000 аэропортов (сводки METAR и TAF).

Имеющиеся станции представлены на карте желтыми и красными точками.

Чтобы увидеть название станции, наведите на нее мышь.

Затем щелкните, чтобы увидеть метеонаблюдения и метеопрогнозы.

Управление картой: чтобы увеличить масштаб, щелкните зеленые кнопки с черным крестиком; чтобы уменьшить масштаб, щелкните зеленую кнопку с тире; для просмотра соседних карт щелкайте зеленые стрелки.


METAR-TAF: